Tiempo atmosférico en la estación meteorológica de La Rambla, Córdoba (200 m.)



Fecha
DESCASC
Temp. máxima en grados centígrados (hora)
DESCASC
Temp. mínima en grados centígrados (hora)
DESCASC
Temp. media en grados centígrados
DESCASC
Racha de viento máxima en m/sg (hora)
DESCASC
Velocidad máxima media en intervalos de 10 minutos(hora)
DESCASC
Precipitaciones diarias en mm
DESCASC
Precipitaciones de 00:00 a 06:00 en mm
DESCASC
Precipitaciones de 06:00 a 12:00 en mm
DESCASC
Precipitaciones de 12:00 a 18:00 en mm
DESCASC
Precipitaciones de 18:00 a 24:00 en mm
DESCASC
21-02-2021 13.4 (01:30) 7.7 (23:10) 10.5 10 (18:10) 6.39 (02:30) 9.2 0 0.2 9 0
20-02-2021 22.2 (14:20) 5 (08:10) 13.6 11.11 (14:50) 7.22 (14:50) 0 0 0 0 0
19-02-2021 20.6 (16:10) 6.2 (06:00) 13.4 6.11 (18:10) 3.89 (17:40) 0 0 0 0 0
18-02-2021 17.5 (13:50) 4.2 (00:00) 10.8 8.06 (14:20) 5.28 (14:10) 0 0 0 0 0
17-02-2021 21.4 (16:30) 5.6 (00:00) 13.5 5 (11:30) 2.78 (12:30) 0 0 0 0 0
16-02-2021 20 (17:20) 3.8 (00:00) 11.9 4.72 (11:50) 2.78 (10:50) 0 0 0 0 0
15-02-2021 20.7 (16:00) 5.9 (00:00) 13.3 7.22 (13:50) 5 (17:20) 0 0 0 0 0
14-02-2021 21.6 (16:10) 6.1 (00:00) 13.9 6.94 (09:30) 5 (09:30) 0 0 0 0 0
13-02-2021 18.3 (17:20) 4.8 (00:00) 11.5 5 (13:30) 3.33 (12:20) 0 0 0 0 0
12-02-2021 17.9 (16:50) 7.2 (00:00) 12.5 8.33 (13:40) 5 (11:40) 0 0 0 0 0
11-02-2021 16.4 (14:30) 12.7 (00:00) 14.5 6.39 (00:20) 4.44 (00:20) 1.6 1.4 0.2 0 0
10-02-2021 15.9 (16:30) 11.6 (00:00) 13.8 15.28 (10:20) 10.83 (08:10) 9.4 0 0.8 3.6 5
09-02-2021 14.6 (14:30) 10.3 (00:00) 12.5 19.17 (15:00) 13.89 (14:50) 4.6 0.4 0.2 2.2 1.8
08-02-2021 14.5 (16:50) 9.6 (00:00) 12.1 14.17 (06:50) 9.17 (17:00) 13.2 7.2 4.8 1.2 0
07-02-2021 13.5 (16:30) 8.7 (00:00) 11.1 13.06 (17:00) 9.72 (17:00) 0.2 0.2 0 0 0
06-02-2021 13.8 (14:10) 9.2 (00:00) 11.5 11.94 (05:10) 8.61 (05:20) 1.8 0.6 0.6 0.4 0.2
05-02-2021 16.8 (15:30) 6.8 (00:00) 11.8 8.61 (16:50) 4.72 (15:10) 8 0 0 7.8 0.2
04-02-2021 17.7 (14:40) 9.4 (00:00) 13.6 8.33 (15:00) 5.28 (14:30) 0 0 0 0 0
03-02-2021 16.7 (15:30) 6.6 (00:00) 11.7 3.89 (14:40) 2.22 (14:20) 0 0 0 0 0
02-02-2021 16.3 (17:10) 7.2 (00:00) 11.7 3.61 (14:40) 2.22 (14:40) 0 0 0 0 0
01-02-2021 17.8 (16:40) 11.6 (00:00) 14.7 8.89 (01:00) 6.11 (01:00) 0.4 0.4 0 0 0
31-01-2021 15.1 (16:00) 7.7 (00:00) 11.4 10 (13:50) 6.67 (15:10) 0.4 0 0 0 0.4
30-01-2021 17.3 (16:10) 8.8 (00:00) 13 10.83 (16:40) 6.94 (16:40) 1.4 0.2 1.2 0 0
29-01-2021 12.7 (21:30) 8.1 (00:00) 10.4 5.28 (15:50) 3.61 (16:00) 0.4 0 0 0 0.4
28-01-2021 21.4 (16:30) 9.5 (00:00) 15.4 5.83 (12:30) 3.89 (12:50) 0.2 0 0.2 0 0
27-01-2021 18.6 (13:00) 10.3 (00:00) 14.5 6.11 (17:10) 3.33 (17:10) 0.6 0.6 0 0 0
26-01-2021 16 (17:00) 13 (00:00) 14.5 7.5 (01:50) 5 (01:50) 0 0 0 0 0
25-01-2021 17.2 (17:10) 9 (00:00) 13.1 11.67 (17:20) 6.94 (13:10) 2 0 0 2 0

Gráficas

Temp. máximas Temp. mínimas Temp. medias Precipitaciones Rachas de viento máximas Velocidades máximas media en intervalos de 10 minutos

Datos horarios

Fecha y hora oficial Temperatura (ºC) Velocidad del viento (km/h) Dirección del viento Racha (km/h) Dirección de racha Precipitación (mm) Presión (hPa) Tendencia (hPa) Humedad (%)
2021-02-23 23:00:00 7 4 Norte 5 Norte 0 -- -- 92
2021-02-23 22:00:00 7.7 0 Calma 4 Nordeste 0 -- -- 88
2021-02-23 21:00:00 9.2 3 Sur 10 Sudoeste 0 -- -- 84
2021-02-23 20:00:00 11.5 9 Sudoeste 15 Sur 0 -- -- 78
2021-02-23 19:00:00 13.8 4 Norte 10 Nordeste 0 -- -- 75
2021-02-23 18:00:00 16.9 7 Nordeste 14 Norte 0 -- -- 56
2021-02-23 17:00:00 17.2 9 Norte 17 Norte 0 -- -- 60
2021-02-23 16:00:00 17.2 6 Nordeste 14 Nordeste 0 -- -- 57
2021-02-23 15:00:00 17 6 Noroeste 14 Norte 0 -- -- 57
2021-02-23 14:00:00 15.7 5 Norte 19 Nordeste 0 -- -- 67
2021-02-23 13:00:00 13.7 10 Nordeste 19 Norte 0 -- -- 72
2021-02-23 12:00:00 12.5 9 Norte 20 Nordeste 0 -- -- 80
2021-02-23 11:00:00 9.8 11 Norte 20 Norte 0 -- -- 87
2021-02-23 10:00:00 8.1 5 Norte 12 Norte 0 -- -- 96
2021-02-23 09:00:00 5.4 10 Norte 15 Norte 0 -- -- 99
2021-02-23 08:00:00 3.2 0 Calma 10 Nordeste 0 -- -- 98
2021-02-23 07:00:00 3.5 2 Sudoeste 11 Noroeste 0 -- -- 99
2021-02-23 06:00:00 4 6 Norte 12 Norte 0 -- -- 99
2021-02-23 05:00:00 3.8 4 Norte 9 Norte 0 -- -- 98
2021-02-23 04:00:00 3.2 6 Norte 9 Norte 0 -- -- 98
2021-02-23 03:00:00 3.5 4 Norte 6 Norte 0 -- -- 98
2021-02-23 02:00:00 4.1 5 Norte 8 Norte 0 -- -- 98
2021-02-23 01:00:00 4 0 Calma 3 Este 0 -- -- 95
2021-02-23 00:00:00 5.1 3 Norte 5 Norte 0 -- -- 96
2021-02-22 23:00:00 5.7 0 Calma 6 Norte 0 -- -- 94
2021-02-22 22:00:00 6.8 3 Nordeste 6 Norte 0 -- -- 93
2021-02-22 21:00:00 7.9 0 Calma 4 Norte 0 -- -- 91
2021-02-22 20:00:00 9.8 3 Este 6 Sudoeste 0 -- -- 85
2021-02-22 19:00:00 12.6 7 Sudoeste 15 Sudoeste 0 -- -- 77
2021-02-22 18:00:00 14.9 8 Sudoeste 21 Sudoeste 0 -- -- 67
2021-02-22 17:00:00 15.1 16 Sudoeste 24 Sudoeste 0 -- -- 64
2021-02-22 16:00:00 15.2 14 Sudoeste 28 Sudoeste 0 -- -- 63
2021-02-22 15:00:00 14.7 12 Sudoeste 24 Sudoeste 0 -- -- 66
2021-02-22 14:00:00 14.1 11 Oeste 24 Oeste 0 -- -- 68
2021-02-22 13:00:00 13.1 10 Sudoeste 21 Sudoeste 0 -- -- 74
2021-02-22 12:00:00 11.6 10 Sudoeste 15 Sudoeste 0 -- -- 83
2021-02-22 11:00:00 9.5 9 Sudoeste 15 Sur 0 -- -- 91
2021-02-22 10:00:00 7.6 6 Sudoeste 8 Sudoeste 0 -- -- 100
2021-02-22 09:00:00 4.8 0 Calma 4 Este 0 -- -- 100
2021-02-22 08:00:00 3 0 Calma 3 Este 0 -- -- 99
2021-02-22 07:00:00 3.4 0 Calma 6 Sur 0 -- -- 100
2021-02-22 06:00:00 2.5 0 Calma 3 Norte 0 -- -- 98
2021-02-22 05:00:00 3.5 0 Calma 4 Nordeste 0 -- -- 97
2021-02-22 04:00:00 5 3 Sudoeste 7 Sur 0 -- -- 97
2021-02-22 03:00:00 5.9 7 Sur 10 Sur 0 -- -- 96
2021-02-22 02:00:00 6.9 4 Sudeste 9 Sur 0 -- -- 94
2021-02-22 01:00:00 7.8 7 Sur 12 Sur 0.2 -- -- 95
2021-02-22 00:00:00 8 5 Sudeste 9 Sudeste 0 -- -- 95
2021-02-21 23:00:00 7.9 0 Calma 5 Sudoeste 0 -- -- 96
2021-02-21 22:00:00 8.5 3 Sur 7 Sur 0 -- -- 95
2021-02-21 21:00:00 9 2 Sudoeste 5 Sur 0 -- -- 94
2021-02-21 20:00:00 9.3 3 Sudoeste 17 Sudoeste 0 -- -- 93
2021-02-21 19:00:00 9.5 12 Oeste 36 Oeste 0 -- -- 92
2021-02-21 18:00:00 10.1 18 Oeste 30 Sudoeste 0.8 -- -- 95
2021-02-21 17:00:00 10.9 12 Oeste 22 Oeste 0.2 -- -- 93
2021-02-21 16:00:00 11.3 16 Sudoeste 28 Sudoeste 0 -- -- 94
2021-02-21 15:00:00 11.3 13 Sudoeste 24 Sudoeste 2.6 -- -- 97
2021-02-21 14:00:00 11.4 13 Sudoeste 20 Sudoeste 3.6 -- -- 96
2021-02-21 13:00:00 11.8 15 Sudoeste 26 Sudoeste 1.8 -- -- 94
2021-02-21 12:00:00 12.4 4 Sudoeste 27 Oeste 0.2 -- -- 92
2021-02-21 11:00:00 12.1 5 Norte 10 Norte 0 -- -- 90
2021-02-21 10:00:00 11.7 6 Norte 9 Norte 0 -- -- 88
2021-02-21 09:00:00 10.9 3 Norte 10 Norte 0 -- -- 88
2021-02-21 08:00:00 11.2 0 Calma 9 Este 0 -- -- 84
2021-02-21 07:00:00 10.8 2 Este 5 Este 0 -- -- 88
2021-02-21 06:00:00 11.9 4 Sudoeste 14 Sur 0 -- -- 82
2021-02-21 05:00:00 12.8 11 Sur 24 Sur 0 -- -- 78
2021-02-21 04:00:00 13 17 Sur 25 Sur 0 -- -- 77
2021-02-21 03:00:00 13.1 17 Sur 34 Sur 0 -- -- 75
2021-02-21 02:00:00 12.9 16 Sur 26 Sur 0 -- -- 74
2021-02-21 01:00:00 13.1 18 Sur 26 Sur 0 -- -- 72
2021-02-21 00:00:00 10.8 2 Norte 18 Sur 0 -- -- 81
2021-02-20 23:00:00 13.3 12 Sur 28 Sur 0 -- -- 72
2021-02-20 22:00:00 13.6 14 Sur 25 Sur 0 -- -- 72
2021-02-20 21:00:00 11.6 0 Calma 7 Sudeste 0 -- -- 81
2021-02-20 20:00:00 13.6 0 Calma 17 Sudoeste 0 -- -- 73
2021-02-20 19:00:00 16.3 12 Sudoeste 20 Sudoeste 0 -- -- 67
2021-02-20 18:00:00 18.3 13 Sudoeste 24 Sur 0 -- -- 63
2021-02-20 17:00:00 20.3 17 Sur 33 Sur 0 -- -- 54
2021-02-20 16:00:00 21.5 18 Sur 33 Sur 0 -- -- 54
2021-02-20 15:00:00 21.7 22 Sur 40 Sur 0 -- -- 49
2021-02-20 14:00:00 21.6 23 Sur 32 Sur 0 -- -- 47
2021-02-20 13:00:00 19.9 15 Sudoeste 23 Sudoeste 0 -- -- 54
2021-02-20 12:00:00 17.8 12 Sudoeste 18 Sur 0 -- -- 60
2021-02-20 11:00:00 14.7 9 Sur 14 Sur 0 -- -- 69
2021-02-20 10:00:00 8.9 7 Norte 13 Norte 0 -- -- 99
2021-02-20 09:00:00 6.6 5 Norte 11 Norte 0 -- -- 100
2021-02-20 08:00:00 5.1 2 Norte 15 Norte 0 -- -- 99
2021-02-20 07:00:00 5.2 8 Norte 10 Norte 0 -- -- 97
2021-02-20 06:00:00 5.8 5 Norte 11 Norte 0 -- -- 98
2021-02-20 05:00:00 6.5 6 Norte 15 Norte 0 -- -- 99
2021-02-20 04:00:00 6.3 5 Norte 10 Norte 0 -- -- 98
2021-02-20 03:00:00 6 3 Norte 8 Norte 0 -- -- 97
2021-02-20 02:00:00 6.8 6 Norte 13 Norte 0 -- -- 98
2021-02-20 01:00:00 7 7 Norte 9 Norte 0 -- -- 98
2021-02-20 00:00:00 6.9 5 Norte 6 Norte 0 -- -- 96
2021-02-19 23:00:00 7.7 2 Nordeste 8 Norte 0 -- -- 95
2021-02-19 22:00:00 8.7 2 Nordeste 5 Noroeste 0 -- -- 93
2021-02-19 21:00:00 10.5 0 Calma 8 Sur 0 -- -- 89
2021-02-19 20:00:00 12.7 8 Sur 8 Sur 0 -- -- 87
2021-02-19 19:00:00 15.2 4 Sudoeste 22 Oeste 0 -- -- 80
2021-02-19 18:00:00 18.3 10 Oeste 21 Sudoeste 0 -- -- 69
2021-02-19 17:00:00 19.9 13 Sudoeste 21 Sudoeste 0 -- -- 61
2021-02-19 16:00:00 20.4 9 Sudoeste 15 Sudoeste 0 -- -- 61
2021-02-19 15:00:00 19.9 8 Sudoeste 16 Sudoeste 0 -- -- 59
2021-02-19 14:00:00 18.5 5 Sudoeste 11 Sudoeste 0 -- -- 62
2021-02-19 13:00:00 14.8 3 Nordeste 13 Norte 0 -- -- 72
2021-02-19 12:00:00 12.2 9 Norte 16 Norte 0 -- -- 93
2021-02-19 11:00:00 10 8 Norte 16 Norte 0 -- -- 100
2021-02-19 10:00:00 8.1 7 Norte 14 Norte 0 -- -- 100
2021-02-19 09:00:00 7.4 8 Norte 15 Norte 0 -- -- 100
2021-02-19 08:00:00 7.5 7 Norte 14 Nordeste 0 -- -- 100
2021-02-19 07:00:00 7.1 8 Nordeste 20 Norte 0 -- -- 100
2021-02-19 06:00:00 6.2 6 Norte 14 Norte 0 -- -- 100
2021-02-19 05:00:00 7 8 Norte 13 Norte 0 -- -- 100
2021-02-19 04:00:00 7 5 Norte 13 Nordeste 0 -- -- 100
2021-02-19 03:00:00 7.2 5 Norte 10 Norte 0 -- -- 100
2021-02-19 02:00:00 7.2 5 Norte 11 Norte 0 -- -- 99
2021-02-19 01:00:00 6.5 5 Norte 7 Norte 0 -- -- 98
2021-02-19 00:00:00 6.9 4 Norte 8 Norte 0 -- -- 97
2021-02-18 23:00:00 7.1 5 Norte 6 Norte 0 -- -- 97
2021-02-18 22:00:00 7.9 5 Norte 6 Norte 0 -- -- 96
2021-02-18 21:00:00 8.8 3 Norte 4 Este 0 -- -- 94
2021-02-18 20:00:00 11.6 0 Calma 10 Sur 0 -- -- 87
2021-02-18 19:00:00 14.4 0 Calma 12 Sudoeste 0 -- -- 82
2021-02-18 18:00:00 16.7 9 Sudoeste 15 Sudoeste 0 -- -- 75
2021-02-18 17:00:00 17 12 Sudoeste 18 Sudoeste 0 -- -- 72
2021-02-18 16:00:00 16.7 13 Sur 21 Sudoeste 0 -- -- 74
2021-02-18 15:00:00 17.2 12 Sudoeste 29 Sudoeste 0 -- -- 73
2021-02-18 14:00:00 17.4 14 Sudoeste 26 Sudoeste 0 -- -- 74
2021-02-18 13:00:00 17.4 14 Sudoeste 21 Sudoeste 0 -- -- 71
2021-02-18 12:00:00 15.5 3 Sudoeste 5 Sudoeste 0 -- -- 75
2021-02-18 11:00:00 12.7 4 Norte 12 Norte 0 -- -- 84
2021-02-18 10:00:00 9.5 6 Norte 12 Norte 0 -- -- 98
2021-02-18 09:00:00 6.1 3 Norte 6 Norte 0 -- -- 100
2021-02-18 08:00:00 4.2 2 Nordeste 6 Norte 0 -- -- 98
2021-02-18 07:00:00 4.7 3 Norte 5 Norte 0 -- -- 98
2021-02-18 06:00:00 5.3 4 Norte 9 Norte 0 -- -- 98
2021-02-18 05:00:00 5.3 0 Calma 6 Norte 0 -- -- 98
2021-02-18 04:00:00 5.4 5 Norte 6 Norte 0 -- -- 98
2021-02-18 03:00:00 5 0 Calma 4 Norte 0 -- -- 95
2021-02-18 02:00:00 5.7 2 Norte 4 Norte 0 -- -- 95
2021-02-18 01:00:00 6.5 3 Norte 6 Norte 0 -- -- 94
2021-02-18 00:00:00 7.2 2 Norte 6 Norte 0 -- -- 93
2021-02-17 23:00:00 7.7 3 Nordeste 6 Noroeste 0 -- -- 91
2021-02-17 22:00:00 8.9 0 Calma 4 Norte 0 -- -- 89
2021-02-17 21:00:00 10 2 Nordeste 5 Norte 0 -- -- 88
2021-02-17 20:00:00 13 4 Norte 9 Norte 0 -- -- 81
2021-02-17 19:00:00 17.1 5 Norte 8 Norte 0 -- -- 71
2021-02-17 18:00:00 20.8 3 Norte 9 Norte 0 -- -- 61
2021-02-17 17:00:00 21.3 5 Norte 10 Norte 0 -- -- 59
2021-02-17 16:00:00 21 5 Norte 15 Norte 0 -- -- 60
2021-02-17 15:00:00 20.3 6 Norte 13 Este 0 -- -- 61
2021-02-17 14:00:00 18.3 7 Norte 15 Nordeste 0 -- -- 71
2021-02-17 13:00:00 16 8 Norte 15 Norte 0 -- -- 76
2021-02-17 12:00:00 13.5 6 Norte 18 Norte 0 -- -- 81
2021-02-17 11:00:00 10.8 9 Norte 16 Norte 0 -- -- 89
2021-02-17 10:00:00 8.6 5 Norte 12 Norte 0 -- -- 97
2021-02-17 09:00:00 6.2 4 Norte 8 Nordeste 0 -- -- 98
2021-02-17 08:00:00 5.8 3 Norte 12 Norte 0 -- -- 97
2021-02-17 07:00:00 6.3 6 Norte 12 Norte 0 -- -- 97
2021-02-17 06:00:00 6.5 5 Norte 12 Norte 0 -- -- 97
2021-02-17 05:00:00 7.1 6 Norte 13 Norte 0 -- -- 97
2021-02-17 04:00:00 7.3 5 Norte 10 Norte 0 -- -- 97
2021-02-17 03:00:00 6 2 Nordeste 6 Nordeste 0 -- -- 97
2021-02-17 02:00:00 5.9 0 Calma 7 Norte 0 -- -- 95
2021-02-17 01:00:00 6.6 4 Norte 5 Norte 0 -- -- 95
2021-02-17 00:00:00 7.1 2 Norte 5 Norte 0 -- -- 92
2021-02-16 23:00:00 8.1 2 Nordeste 6 Noroeste 0 -- -- 90
2021-02-16 22:00:00 9.6 5 Norte 7 Norte 0 -- -- 88
2021-02-16 21:00:00 11.1 5 Norte 8 Norte 0 -- -- 84
2021-02-16 20:00:00 12.5 5 Norte 7 Norte 0 -- -- 82
2021-02-16 19:00:00 15.2 4 Norte 9 Norte 0 -- -- 76
2021-02-16 18:00:00 19.1 4 Norte 9 Norte 0 -- -- 63
2021-02-16 17:00:00 19.8 5 Norte 12 Nordeste 0 -- -- 60
2021-02-16 16:00:00 19.2 6 Norte 15 Norte 0 -- -- 62
2021-02-16 15:00:00 18.7 8 Norte 14 Norte 0 -- -- 65
2021-02-16 14:00:00 17.8 9 Norte 16 Norte 0 -- -- 68
2021-02-16 13:00:00 17.7 5 Este 15 Sudeste 0 -- -- 56
2021-02-16 12:00:00 15.6 9 Sudeste 17 Sudeste 0 -- -- 63
2021-02-16 11:00:00 13.4 7 Este 15 Sudeste 0 -- -- 72
2021-02-16 10:00:00 8.6 7 Norte 14 Nordeste 0 -- -- 93
2021-02-16 09:00:00 5.9 4 Nordeste 10 Norte 0 -- -- 97
2021-02-16 08:00:00 4.6 4 Nordeste 12 Norte 0 -- -- 97
2021-02-16 07:00:00 4.1 3 Norte 10 Norte 0 -- -- 96
2021-02-16 06:00:00 4.5 5 Norte 10 Norte 0 -- -- 95
2021-02-16 05:00:00 4.6 4 Nordeste 8 Norte 0 -- -- 92
2021-02-16 04:00:00 4.6 2 Nordeste 9 Norte 0 -- -- 93
2021-02-16 03:00:00 5.1 0 Calma 5 Norte 0 -- -- 92
2021-02-16 02:00:00 6.3 3 Norte 8 Norte 0 -- -- 89
2021-02-16 01:00:00 7.3 5 Sudeste 8 Sudeste 0 -- -- 86
2021-02-16 00:00:00 8.5 5 Sur 12 Sudoeste 0 -- -- 84
2021-02-15 23:00:00 8.4 0 Calma 12 Sur 0 -- -- 81
2021-02-15 22:00:00 10.8 7 Sur 10 Sur 0 -- -- 72
2021-02-15 21:00:00 12.1 6 Sur 15 Sur 0 -- -- 69
2021-02-15 20:00:00 12.6 5 Sur 10 Sur 0 -- -- 71
2021-02-15 19:00:00 14.9 3 Sudoeste 20 Sudoeste 0 -- -- 65
2021-02-15 18:00:00 18.2 12 Sudoeste 24 Sur 0 -- -- 57
2021-02-15 17:00:00 19.5 17 Sudoeste 24 Sudoeste 0 -- -- 55
2021-02-15 16:00:00 20.7 13 Sur 24 Sur 0 -- -- 49
2021-02-15 15:00:00 20.4 13 Sur 23 Sur 0 -- -- 50
2021-02-15 14:00:00 19.6 15 Sur 26 Sur 0 -- -- 53
2021-02-15 13:00:00 16.5 6 Norte 17 Norte 0 -- -- 67
2021-02-15 12:00:00 14.8 7 Norte 15 Norte 0 -- -- 75
2021-02-15 11:00:00 11.8 11 Norte 16 Norte 0 -- -- 83
2021-02-15 10:00:00 10 5 Norte 13 Norte 0 -- -- 89
2021-02-15 09:00:00 7.1 5 Norte 12 Norte 0 -- -- 96
2021-02-15 08:00:00 6.1 5 Norte 12 Norte 0 -- -- 95
2021-02-15 07:00:00 6.3 6 Norte 12 Norte 0 -- -- 96
2021-02-15 06:00:00 6.4 3 Este 11 Norte 0 -- -- 93
2021-02-15 05:00:00 6.4 4 Norte 10 Norte 0 -- -- 93
2021-02-15 04:00:00 6.5 3 Norte 8 Norte 0 -- -- 94
2021-02-15 03:00:00 6.8 3 Nordeste 7 Norte 0 -- -- 94
2021-02-15 02:00:00 6.6 5 Norte 9 Norte 0 -- -- 94
2021-02-15 01:00:00 7.2 3 Norte 6 Norte 0 -- -- 92
2021-02-15 00:00:00 8.5 2 Sudoeste 12 Sudoeste 0 -- -- 90
2021-02-14 23:00:00 9.1 2 Sudoeste 4 Sudoeste 0 -- -- 87
2021-02-14 22:00:00 9.7 4 Sudoeste 10 Sur 0 -- -- 86
2021-02-14 21:00:00 9.9 0 Calma 5 Sur 0 -- -- 87
2021-02-14 20:00:00 11.8 0 Calma 8 Sur 0 -- -- 81
2021-02-14 19:00:00 15.9 5 Sudoeste 17 Sudoeste 0 -- -- 66
2021-02-14 18:00:00 19 12 Sur 23 Sur 0 -- -- 53
2021-02-14 17:00:00 21.1 13 Sur 21 Sur 0 -- -- 47
2021-02-14 16:00:00 21.5 3 Sur 8 Sudeste 0 -- -- 48
2021-02-14 15:00:00 19.8 2 Noroeste 10 Nordeste 0 -- -- 51
2021-02-14 14:00:00 18.4 4 Noroeste 12 Norte 0 -- -- 59
2021-02-14 13:00:00 17.2 5 Norte 20 Nordeste 0 -- -- 69
2021-02-14 12:00:00 15.2 14 Nordeste 21 Norte 0 -- -- 72
2021-02-14 11:00:00 12.5 12 Norte 22 Norte 0 -- -- 85
2021-02-14 10:00:00 9.7 10 Norte 25 Norte 0 -- -- 91
2021-02-14 09:00:00 7.2 14 Norte 20 Norte 0 -- -- 94
2021-02-14 08:00:00 6.8 9 Norte 22 Norte 0 -- -- 93
2021-02-14 07:00:00 7.1 9 Norte 21 Norte 0 -- -- 95
2021-02-14 06:00:00 6.4 4 Norte 14 Nordeste 0 -- -- 97
2021-02-14 05:00:00 6.5 8 Norte 15 Norte 0 -- -- 96
2021-02-14 04:00:00 7.8 13 Norte 18 Norte 0 -- -- 95
2021-02-14 03:00:00 7 4 Nordeste 13 Nordeste 0 -- -- 96
2021-02-14 02:00:00 7.4 6 Norte 11 Norte 0 -- -- 98
2021-02-14 01:00:00 7.2 2 Este 6 Norte 0 -- -- 97
2021-02-14 00:00:00 7 0 Calma 7 Norte 0 -- -- 94
2021-02-13 23:00:00 8.3 5 Norte 8 Norte 0 -- -- 94
2021-02-13 22:00:00 9.1 2 Nordeste 6 Norte 0 -- -- 93
2021-02-13 21:00:00 9.9 4 Norte 6 Norte 0 -- -- 92
2021-02-13 20:00:00 11.6 3 Norte 6 Norte 0 -- -- 89
2021-02-13 19:00:00 14.9 4 Norte 5 Noroeste 0 -- -- 78
2021-02-13 18:00:00 17.7 4 Noroeste 8 Norte 0 -- -- 69
2021-02-13 17:00:00 18.1 4 Norte 11 Norte 0 -- -- 65
2021-02-13 16:00:00 17.3 5 Nordeste 14 Norte 0 -- -- 61
2021-02-13 15:00:00 16.6 8 Norte 15 Norte 0 -- -- 69
2021-02-13 14:00:00 15.8 10 Nordeste 18 Nordeste 0 -- -- 77
2021-02-13 13:00:00 14.6 10 Nordeste 17 Nordeste 0 -- -- 77
2021-02-13 08:00:00 -- -- -- -- -- -- -- -- --
2021-02-13 07:00:00 -- -- -- -- -- -- -- -- --
2021-02-13 06:00:00 -- -- -- -- -- -- -- -- --
2021-02-13 05:00:00 6.5 0 Calma 13 Norte 0 -- -- 98
2021-02-13 04:00:00 7.1 7 Norte 12 Norte 0 -- -- 99
2021-02-13 03:00:00 5.9 0 Calma 7 Nordeste 0 -- -- 97
2021-02-13 02:00:00 6.3 2 Nordeste 5 Norte 0 -- -- 96
2021-02-13 01:00:00 7 4 Norte 8 Norte 0 -- -- 97
2021-02-13 00:00:00 7.2 3 Este 5 Este 0 -- -- 95
2021-02-12 23:00:00 8.3 0 Calma 5 Este 0 -- -- 94
2021-02-12 22:00:00 9.5 3 Norte 7 Sudeste 0 -- -- 92
2021-02-12 21:00:00 11.2 4 Nordeste 8 Norte 0 -- -- 87
2021-02-12 20:00:00 11.8 3 Nordeste 12 Noroeste 0 -- -- 89
2021-02-12 19:00:00 14.3 7 Oeste 13 Oeste 0 -- -- 77
2021-02-12 18:00:00 16.9 9 Noroeste 18 Noroeste 0 -- -- 69
2021-02-12 17:00:00 17.7 13 Noroeste 20 Oeste 0 -- -- 63
2021-02-12 16:00:00 17.4 10 Noroeste 24 Sudoeste 0 -- -- 71
2021-02-12 15:00:00 17.4 13 Oeste 24 Oeste 0 -- -- 67
2021-02-12 14:00:00 16.8 16 Oeste 30 Oeste 0 -- -- 69
2021-02-12 13:00:00 16.3 12 Oeste 22 Oeste 0 -- -- 77
2021-02-12 12:00:00 15.5 13 Noroeste 24 Noroeste 0 -- -- 81
2021-02-12 11:00:00 14.9 12 Noroeste 22 Oeste 0 -- -- 91
2021-02-12 10:00:00 14.1 7 Sudoeste 21 Sudoeste 0 -- -- 100
2021-02-12 09:00:00 13.6 12 Sudoeste 18 Sudoeste 0 -- -- 100
2021-02-12 08:00:00 13.4 13 Sudoeste 18 Sudoeste 0 -- -- 100
2021-02-12 07:00:00 13.4 11 Sudoeste 19 Sudoeste 0 -- -- 100
2021-02-12 06:00:00 13.3 13 Sudoeste 20 Sudoeste 0 -- -- 100
2021-02-12 05:00:00 13.2 8 Sudoeste 17 Sudoeste 0 -- -- 100
2021-02-12 04:00:00 13.4 13 Sur 20 Sudoeste 0 -- -- 100
2021-02-12 03:00:00 13.4 14 Sudoeste 20 Sudoeste 0 -- -- 100
2021-02-12 02:00:00 13.5 10 Sudoeste 17 Sudoeste 0 -- -- 100
2021-02-12 01:00:00 13.4 4 Sur 8 Sur 0 -- -- 100
2021-02-12 00:00:00 13 2 Sudeste 4 Sudeste 0 -- -- 100
2021-02-11 23:00:00 12.7 2 Noroeste 4 Norte 0 -- -- 99
2021-02-11 22:00:00 12.7 0 Calma 4 Este 0 -- -- 98
2021-02-11 21:00:00 13.2 2 Este 5 Este 0 -- -- 97
2021-02-11 20:00:00 14.3 5 Este 15 Oeste 0 -- -- 97
2021-02-11 19:00:00 14.9 9 Oeste 13 Oeste 0 -- -- 95
2021-02-11 18:00:00 15.5 4 Noroeste 8 Oeste 0 -- -- 92
2021-02-11 17:00:00 15.8 4 Oeste 14 Oeste 0 -- -- 89
2021-02-11 16:00:00 15.9 9 Oeste 14 Oeste 0 -- -- 88
2021-02-11 15:00:00 16.3 9 Sudoeste 15 Sur 0 -- -- 88
2021-02-11 14:00:00 15.8 5 Sur 10 Sur 0 -- -- 90
2021-02-11 13:00:00 15.6 8 Sur 13 Sur 0 -- -- 92
2021-02-11 12:00:00 14.8 7 Sur 9 Sur 0 -- -- 100
2021-02-11 11:00:00 14 6 Sur 12 Sudoeste 0 -- -- 100
2021-02-11 10:00:00 13.7 6 Sudoeste 11 Sur 0 -- -- 100
2021-02-11 09:00:00 13.4 8 Sur 13 Sur 0 -- -- 100
2021-02-11 08:00:00 13.3 8 Sur 13 Sur 0 -- -- 100
2021-02-11 07:00:00 13.5 8 Sudoeste 14 Sudoeste 0.2 -- -- 100
2021-02-11 06:00:00 13.6 8 Sudoeste 17 Sudoeste 0.2 -- -- 100
2021-02-11 05:00:00 13.8 11 Sudoeste 17 Sudoeste 0.2 -- -- 100
2021-02-11 04:00:00 13.9 12 Sudoeste 19 Sudoeste 0.4 -- -- 100
2021-02-11 03:00:00 14 9 Sudoeste 18 Sudoeste 0.4 -- -- 100
2021-02-11 02:00:00 14 14 Sudoeste 20 Sudoeste 0.2 -- -- 100
2021-02-11 01:00:00 14.1 11 Sudoeste 23 Sudoeste 0 -- -- 100
2021-02-11 00:00:00 14.1 14 Sudoeste 28 Sudoeste 0 -- -- 100
2021-02-10 23:00:00 14.1 18 Sudoeste 32 Sudoeste 0.2 -- -- 100
2021-02-10 22:00:00 14 21 Sudoeste 32 Sudoeste 1.2 -- -- 100
2021-02-10 21:00:00 14.1 22 Sudoeste 33 Sudoeste 1.4 -- -- 100
2021-02-10 20:00:00 14.3 21 Sudoeste 35 Sudoeste 1.6 -- -- 100
2021-02-10 19:00:00 14.7 23 Sudoeste 36 Sudoeste 0.6 -- -- 99
2021-02-10 18:00:00 15 18 Sudoeste 35 Sudoeste 0.8 -- -- 99
2021-02-10 17:00:00 15.7 17 Sudoeste 30 Sudoeste 0 -- -- 98
2021-02-10 16:00:00 15.6 13 Sudoeste 39 Sudoeste 2.2 -- -- 98
2021-02-10 15:00:00 15.6 21 Sudoeste 43 Sudoeste 0.4 -- -- 97
2021-02-10 14:00:00 15.4 24 Sudoeste 41 Sudoeste 0.2 -- -- 96
2021-02-10 13:00:00 15.1 22 Sudoeste 48 Oeste 0 -- -- 96
2021-02-10 12:00:00 14.7 27 Sudoeste 50 Sudoeste 0 -- -- 97
2021-02-10 11:00:00 14.1 34 Sudoeste 55 Sudoeste 0 -- -- 97
2021-02-10 10:00:00 13.6 33 Sudoeste 55 Sudoeste 0 -- -- 96
2021-02-10 09:00:00 13.5 34 Sudoeste 54 Sudoeste 0 -- -- 96
2021-02-10 08:00:00 13.2 33 Sudoeste 55 Sudoeste 0.6 -- -- 98
2021-02-10 07:00:00 12.8 27 Sudoeste 42 Sudoeste 0.2 -- -- 97
2021-02-10 06:00:00 12.4 28 Sudoeste 42 Sudoeste 0 -- -- 97
2021-02-10 05:00:00 12.5 20 Sudoeste 36 Sudoeste 0 -- -- 97
2021-02-10 04:00:00 12.1 19 Sudoeste 29 Sudoeste 0 -- -- 98
2021-02-10 03:00:00 11.7 19 Sudoeste 31 Sudoeste 0 -- -- 97
2021-02-10 02:00:00 12.2 22 Sudoeste 42 Sudoeste 0 -- -- 95
2021-02-10 01:00:00 12.6 26 Sudoeste 40 Sudoeste 0 -- -- 98
2021-02-10 00:00:00 12.1 24 Sudoeste 45 Sudoeste 0.2 -- -- 98
2021-02-09 23:00:00 12 22 Sudoeste 32 Sudoeste 0 -- -- 98
2021-02-09 22:00:00 12.4 27 Sudoeste 46 Sudoeste 0.8 -- -- 97
2021-02-09 21:00:00 13.1 34 Sudoeste 54 Sudoeste 0.4 -- -- 98
2021-02-09 20:00:00 13.4 40 Sudoeste 55 Sudoeste 0.2 -- -- 95
2021-02-09 19:00:00 13.3 32 Sudoeste 47 Sudoeste 0.2 -- -- 96
2021-02-09 18:00:00 13.4 32 Sudoeste 53 Sudoeste 0 -- -- 95
2021-02-09 17:00:00 13.1 35 Sudoeste 53 Sudoeste 0.6 -- -- 95
2021-02-09 16:00:00 13.3 35 Sudoeste 69 Sudoeste 1.4 -- -- 96
2021-02-09 15:00:00 14 48 Sudoeste 69 Sudoeste 0.2 -- -- 89
2021-02-09 14:00:00 14.2 38 Sudoeste 53 Sudoeste 0 -- -- 87
2021-02-09 13:00:00 14.1 31 Sudoeste 55 Sur 0 -- -- 89
2021-02-09 12:00:00 13.4 37 Sudoeste 51 Sudoeste 0 -- -- 87
2021-02-09 11:00:00 13.1 26 Sudoeste 45 Sudoeste 0 -- -- 88
2021-02-09 10:00:00 11.7 21 Sur 33 Sudoeste 0 -- -- 92
2021-02-09 09:00:00 10.9 13 Sur 22 Sur 0 -- -- 96
2021-02-09 08:00:00 10.5 14 Sur 23 Sur 0 -- -- 97
2021-02-09 07:00:00 10.5 12 Sur 26 Sur 0.2 -- -- 98
2021-02-09 06:00:00 10.8 17 Sudoeste 26 Sur 0 -- -- 100
2021-02-09 05:00:00 10.6 10 Sur 15 Sudoeste 0.4 -- -- 99
2021-02-09 04:00:00 10.5 10 Sudoeste 19 Sudoeste 0 -- -- 99
2021-02-09 03:00:00 10.5 13 Sudoeste 25 Sudoeste 0 -- -- 98
2021-02-09 02:00:00 10.7 14 Sudoeste 24 Sudoeste 0 -- -- 98
2021-02-09 01:00:00 10.7 8 Sudoeste 14 Sur 0 -- -- 99
2021-02-09 00:00:00 10.4 9 Sudoeste 17 Sudoeste 0 -- -- 98
2021-02-08 23:00:00 10.6 11 Sur 22 Sudoeste 0 -- -- 97
2021-02-08 22:00:00 10.9 17 Sudoeste 33 Sudoeste 0 -- -- 95
2021-02-08 21:00:00 11.7 22 Sudoeste 32 Sudoeste 0 -- -- 93
2021-02-08 20:00:00 12.1 19 Sudoeste 31 Sudoeste 0 -- -- 93
2021-02-08 19:00:00 12.4 18 Sudoeste 31 Sudoeste 0 -- -- 91
2021-02-08 18:00:00 13.1 23 Sudoeste 45 Sudoeste 0 -- -- 83
2021-02-08 17:00:00 14.3 33 Sudoeste 49 Sudoeste 0 -- -- 74
2021-02-08 16:00:00 13.2 17 Oeste 37 Sudoeste 0.6 -- -- 86
2021-02-08 15:00:00 13.8 23 Sudoeste 45 Sudoeste 0 -- -- 79
2021-02-08 14:00:00 12.6 20 Oeste 45 Sudoeste 0.6 -- -- 89
2021-02-08 13:00:00 13.8 25 Sudoeste 40 Sudoeste 0 -- -- 84
2021-02-08 12:00:00 12.2 21 Sudoeste 32 Sudoeste 0 -- -- 93
2021-02-08 11:00:00 11.2 18 Sudoeste 26 Sudoeste 0 -- -- 97
2021-02-08 10:00:00 10.2 11 Sudoeste 15 Sudoeste 0 -- -- 96
2021-02-08 09:00:00 9.6 0 Calma 21 Oeste 0 -- -- 93
2021-02-08 08:00:00 11 17 Oeste 36 Sudoeste 0 -- -- 87
2021-02-08 07:00:00 11.8 22 Sudoeste 51 Sudoeste 4.8 -- -- 100
2021-02-08 06:00:00 11 20 Sur 33 Sur 3 -- -- 99
2021-02-08 05:00:00 11.1 22 Sur 37 Sur 2.8 -- -- 98
2021-02-08 04:00:00 11.3 26 Sudoeste 39 Sudoeste 1.2 -- -- 96
2021-02-08 03:00:00 10.8 24 Sudoeste 34 Sudoeste 0.2 -- -- 98
2021-02-08 02:00:00 10.1 15 Sur 28 Sur 0 -- -- 99
2021-02-08 01:00:00 10.1 15 Sur 24 Sudoeste 0 -- -- 96
2021-02-08 00:00:00 10.2 14 Sudoeste 25 Sudoeste 0 -- -- 91
2021-02-07 23:00:00 10 16 Sudoeste 23 Sudoeste 0 -- -- 89
2021-02-07 22:00:00 9.8 10 Sur 17 Sudoeste 0 -- -- 88
2021-02-07 21:00:00 9.8 12 Sudoeste 21 Oeste 0 -- -- 84
2021-02-07 20:00:00 9.7 14 Sudoeste 29 Sudoeste 0 -- -- 82
2021-02-07 19:00:00 10.4 19 Sudoeste 41 Sudoeste 0 -- -- 78
2021-02-07 18:00:00 11.5 27 Sudoeste 43 Sudoeste 0 -- -- 76
2021-02-07 17:00:00 12.2 35 Sudoeste 47 Sudoeste 0 -- -- 75
2021-02-07 16:00:00 13.4 28 Sudoeste 40 Sudoeste 0 -- -- 77
2021-02-07 15:00:00 13 25 Sudoeste 34 Sudoeste 0 -- -- 84
2021-02-07 14:00:00 12.2 22 Sudoeste 37 Sudoeste 0 -- -- 90
2021-02-07 13:00:00 12 13 Sudoeste 21 Oeste 0 -- -- 86
2021-02-07 12:00:00 11.2 13 Sudoeste 20 Sudoeste 0 -- -- 95
2021-02-07 11:00:00 10 13 Sudoeste 19 Sudoeste 0 -- -- 100
2021-02-07 10:00:00 9.4 8 Sudoeste 14 Sudoeste 0 -- -- 100
2021-02-07 09:00:00 9.1 9 Sudoeste 15 Sudoeste 0 -- -- 100
2021-02-07 08:00:00 8.8 5 Sudoeste 10 Sudoeste 0 -- -- 100
2021-02-07 07:00:00 8.8 8 Oeste 15 Sudoeste 0 -- -- 100
2021-02-07 06:00:00 9 8 Sudoeste 13 Sudoeste 0 -- -- 99
2021-02-07 05:00:00 9.1 9 Sudoeste 12 Sudoeste 0 -- -- 99
2021-02-07 04:00:00 9 9 Sudoeste 14 Sudoeste 0.2 -- -- 99
2021-02-07 03:00:00 9 12 Sudoeste 21 Sudoeste 0 -- -- 99
2021-02-07 02:00:00 9.3 13 Sudoeste 19 Sudoeste 0 -- -- 97
2021-02-07 01:00:00 9.2 14 Sudoeste 22 Sudoeste 0 -- -- 97
2021-02-07 00:00:00 9.2 13 Sudoeste 19 Sudoeste 0 -- -- 96
2021-02-06 23:00:00 9.5 9 Sudoeste 18 Sudoeste 0 -- -- 95
2021-02-06 22:00:00 9.9 12 Sudoeste 24 Sudoeste 0 -- -- 93
2021-02-06 21:00:00 10.8 13 Sudoeste 23 Sur 0.2 -- -- 93
2021-02-06 20:00:00 11 12 Sudoeste 23 Sudoeste 0 -- -- 92
2021-02-06 19:00:00 11 13 Sudoeste 35 Sudoeste 0 -- -- 93
2021-02-06 18:00:00 12 23 Sudoeste 36 Sudoeste 0.2 -- -- 85
2021-02-06 17:00:00 12.9 24 Sudoeste 40 Sudoeste 0 -- -- 82
2021-02-06 16:00:00 13.3 27 Sudoeste 37 Sudoeste 0.2 -- -- 83
2021-02-06 15:00:00 12.8 21 Sudoeste 35 Sudoeste 0 -- -- 87
2021-02-06 14:00:00 13.4 26 Sudoeste 37 Sudoeste 0 -- -- 83
2021-02-06 13:00:00 12.6 28 Sudoeste 35 Sudoeste 0 -- -- 86
2021-02-06 12:00:00 12.7 21 Sudoeste 32 Sudoeste 0 -- -- 91
2021-02-06 11:00:00 11.2 19 Sudoeste 28 Sudoeste 0 -- -- 95
2021-02-06 10:00:00 10.1 12 Sudoeste 17 Sudoeste 0.2 -- -- 98
2021-02-06 09:00:00 9.6 12 Sudoeste 23 Sur 0.4 -- -- 97
2021-02-06 08:00:00 9.4 8 Sudoeste 18 Sudoeste 0 -- -- 95
2021-02-06 07:00:00 9.3 13 Sudoeste 35 Sudoeste 0 -- -- 96
2021-02-06 06:00:00 9.7 30 Sudoeste 43 Sudoeste 0 -- -- 95
2021-02-06 05:00:00 10.4 21 Sudoeste 36 Sudoeste 0.4 -- -- 98
2021-02-06 04:00:00 11.4 20 Sur 36 Sur 0 -- -- 87
2021-02-06 03:00:00 10.9 13 Sur 23 Sur 0 -- -- 89
2021-02-06 02:00:00 10.7 9 Sudeste 18 Sudeste 0.2 -- -- 90
2021-02-06 01:00:00 10.1 5 Sudeste 10 Sudeste 0 -- -- 96
2021-02-06 00:00:00 9.5 0 Calma 7 Sudoeste 0 -- -- 98
2021-02-05 23:00:00 9.5 0 Calma 6 Sudeste 0 -- -- 97
2021-02-05 22:00:00 10.3 3 Este 7 Sudeste 0 -- -- 96
2021-02-05 21:00:00 10.9 2 Sudeste 10 Sudeste 0 -- -- 96
2021-02-05 20:00:00 11.4 4 Este 12 Sudoeste 0.2 -- -- 96
2021-02-05 19:00:00 11.8 2 Este 12 Este 0 -- -- 95
2021-02-05 18:00:00 12.7 5 Este 19 Sudoeste 0.4 -- -- 95
2021-02-05 17:00:00 12.6 14 Sudoeste 31 Sudoeste 7.4 -- -- 92
2021-02-05 16:00:00 15.9 12 Sudoeste 25 Sudoeste 0 -- -- 78
2021-02-05 15:00:00 16.1 16 Oeste 23 Oeste 0 -- -- 79
2021-02-05 14:00:00 16 14 Sudoeste 24 Oeste 0 -- -- 78
2021-02-05 13:00:00 15.9 14 Sudoeste 24 Sudoeste 0 -- -- 85
2021-02-05 12:00:00 14.3 15 Sudoeste 21 Sudoeste 0 -- -- 87
2021-02-05 11:00:00 12.9 8 Sur 15 Sur 0 -- -- 92
2021-02-05 10:00:00 9.2 0 Calma 5 Sudoeste 0 -- -- 100
2021-02-05 09:00:00 7.1 0 Calma 5 Norte 0 -- -- 98
2021-02-05 08:00:00 7.5 0 Calma 6 Norte 0 -- -- 96
2021-02-05 07:00:00 9.3 5 Nordeste 10 Nordeste 0 -- -- 98
2021-02-05 06:00:00 9.5 3 Norte 10 Nordeste 0 -- -- 96
2021-02-05 05:00:00 10.4 5 Norte 11 Nordeste 0 -- -- 96
2021-02-05 04:00:00 10.6 2 Norte 8 Nordeste 0 -- -- 95
2021-02-05 03:00:00 11 2 Norte 10 Nordeste 0 -- -- 93
2021-02-05 02:00:00 12.3 9 Norte 14 Norte 0 -- -- 91
2021-02-05 01:00:00 12.5 9 Nordeste 18 Nordeste 0 -- -- 91
2021-02-05 00:00:00 12.8 5 Norte 24 Nordeste 0 -- -- 89
2021-02-04 23:00:00 13.4 8 Norte 30 Nordeste 0 -- -- 87
2021-02-04 22:00:00 13 15 Nordeste 23 Nordeste 0 -- -- 88
2021-02-04 21:00:00 12.3 9 Nordeste 13 Nordeste 0 -- -- 90
2021-02-04 20:00:00 12.3 6 Nordeste 9 Nordeste 0 -- -- 90
2021-02-04 19:00:00 13.8 3 Nordeste 9 Noroeste 0 -- -- 87
2021-02-04 18:00:00 15.9 9 Oeste 21 Oeste 0 -- -- 78
2021-02-04 17:00:00 17.4 9 Oeste 23 Oeste 0 -- -- 74
2021-02-04 16:00:00 17.6 13 Oeste 24 Oeste 0 -- -- 73
2021-02-04 15:00:00 17.2 16 Sudoeste 30 Sudoeste 0 -- -- 73
2021-02-04 14:00:00 16.8 18 Sudoeste 28 Sudoeste 0 -- -- 73
2021-02-04 13:00:00 15.7 12 Sudoeste 20 Sudoeste 0 -- -- 78
2021-02-04 12:00:00 13.1 3 Oeste 9 Noroeste 0 -- -- 95
2021-02-04 11:00:00 12.2 2 Nordeste 6 Nordeste 0 -- -- 100
2021-02-04 10:00:00 10.6 2 Norte 9 Norte 0 -- -- 100
2021-02-04 09:00:00 9.8 4 Norte 9 Nordeste 0 -- -- 99
2021-02-04 08:00:00 10.2 4 Norte 9 Norte 0 -- -- 99
2021-02-04 07:00:00 10.3 4 Norte 7 Nordeste 0 -- -- 98
2021-02-04 06:00:00 10.7 3 Nordeste 8 Norte 0 -- -- 99
2021-02-04 05:00:00 10.6 3 Nordeste 5 Este 0 -- -- 98
2021-02-04 04:00:00 10.1 0 Calma 4 Sudoeste 0 -- -- 98
2021-02-04 03:00:00 10.2 0 Calma 5 Norte 0 -- -- 97
2021-02-04 02:00:00 10.2 5 Norte 6 Norte 0 -- -- 97
2021-02-04 01:00:00 9.9 0 Calma 5 Norte 0 -- -- 97
2021-02-04 00:00:00 9.4 2 Norte 5 Norte 0 -- -- 97
2021-02-03 23:00:00 9.3 2 Norte 4 Norte 0 -- -- 96
2021-02-03 22:00:00 9.8 0 Calma 4 Este 0 -- -- 94
2021-02-03 21:00:00 11.3 3 Norte 5 Norte 0 -- -- 92
2021-02-03 20:00:00 12.4 2 Nordeste 5 Este 0 -- -- 90
2021-02-03 19:00:00 13.6 3 Oeste 8 Oeste 0 -- -- 85
2021-02-03 18:00:00 15 7 Oeste 11 Sudoeste 0 -- -- 80
2021-02-03 17:00:00 16.2 3 Oeste 12 Sudoeste 0 -- -- 73
2021-02-03 16:00:00 16.5 5 Sur 13 Sudoeste 0 -- -- 67
2021-02-03 15:00:00 16.5 8 Sur 14 Sur 0 -- -- 68
2021-02-03 14:00:00 15.6 4 Oeste 10 Sudoeste 0 -- -- 72
2021-02-03 13:00:00 14.7 7 Sur 12 Sur 0 -- -- 74
2021-02-03 12:00:00 13.6 3 Sudoeste 6 Oeste 0 -- -- 90
2021-02-03 11:00:00 12.3 0 Calma 5 Sudeste 0 -- -- 95
2021-02-03 10:00:00 10.9 0 Calma 3 Este 0 -- -- 99
2021-02-03 09:00:00 9.8 0 Calma 2 Este 0 -- -- 99
2021-02-03 08:00:00 9.6 0 Calma 2 Este 0 -- -- 99
2021-02-03 07:00:00 9.5 0 Calma 2 Este 0 -- -- 99
2021-02-03 06:00:00 9.4 0 Calma 2 Noroeste 0 -- -- 99
2021-02-03 05:00:00 9.1 0 Calma 3 Noroeste 0 -- -- 100
2021-02-03 04:00:00 8.5 0 Calma 8 Sudeste 0 -- -- 100
2021-02-03 03:00:00 7.4 0 Calma 4 Sudoeste 0 -- -- 99
2021-02-03 02:00:00 6.8 0 Calma 6 Este 0 -- -- 97
2021-02-03 01:00:00 7.3 2 Norte 5 Norte 0 -- -- 98
2021-02-03 00:00:00 7.2 3 Norte 6 Norte 0 -- -- 97
2021-02-02 23:00:00 8 3 Norte 4 Norte 0 -- -- 95
2021-02-02 22:00:00 9.1 3 Nordeste 7 Norte 0 -- -- 92
2021-02-02 21:00:00 10.3 2 Nordeste 7 Norte 0 -- -- 92
2021-02-02 20:00:00 11.8 0 Calma 6 Este 0 -- -- 89
2021-02-02 19:00:00 13 6 Noroeste 10 Noroeste 0 -- -- 84
2021-02-02 18:00:00 15.5 4 Noroeste 11 Noroeste 0 -- -- 75
2021-02-02 17:00:00 16.1 4 Noroeste 11 Noroeste 0 -- -- 74
2021-02-02 16:00:00 15.4 3 Noroeste 8 Oeste 0 -- -- 77
2021-02-02 15:00:00 15.3 4 Oeste 13 Este 0 -- -- 76
2021-02-02 14:00:00 14.3 3 Oeste 12 Sur 0 -- -- 80
2021-02-02 13:00:00 13.9 4 Oeste 10 Sudoeste 0 -- -- 81
2021-02-02 12:00:00 13.5 3 Oeste 7 Noroeste 0 -- -- 88
2021-02-02 11:00:00 12.4 4 Nordeste 9 Nordeste 0 -- -- 94
2021-02-02 10:00:00 11.8 4 Norte 7 Nordeste 0 -- -- 98
2021-02-02 09:00:00 11.1 3 Norte 6 Norte 0 -- -- 99
2021-02-02 08:00:00 10.9 2 Nordeste 3 Nordeste 0 -- -- 98
2021-02-02 07:00:00 11 3 Sudoeste 5 Sudoeste 0 -- -- 98
2021-02-02 06:00:00 11.1 0 Calma 3 Noroeste 0 -- -- 98
2021-02-02 05:00:00 11.2 4 Oeste 8 Oeste 0 -- -- 98
2021-02-02 04:00:00 11.4 2 Sur 6 Sudoeste 0 -- -- 97
2021-02-02 03:00:00 11.4 4 Sudoeste 9 Sudoeste 0 -- -- 97
2021-02-02 02:00:00 11.6 6 Sudoeste 8 Sur 0 -- -- 96
2021-02-02 01:00:00 11.8 6 Sudoeste 11 Sur 0 -- -- 94
2021-02-02 00:00:00 11.7 5 Sur 10 Sudoeste 0 -- -- 93
2021-02-01 23:00:00 11.8 6 Sudoeste 14 Sur 0 -- -- 92
2021-02-01 22:00:00 12.3 13 Sudoeste 19 Sur 0 -- -- 92
2021-02-01 21:00:00 12.4 10 Sur 15 Sur 0 -- -- 91
2021-02-01 20:00:00 12.5 9 Sur 15 Sudoeste 0 -- -- 91
2021-02-01 19:00:00 13.8 9 Sudoeste 21 Sudoeste 0 -- -- 86
2021-02-01 18:00:00 16.3 14 Sudoeste 23 Oeste 0 -- -- 78
2021-02-01 17:00:00 17.1 14 Oeste 25 Sudoeste 0 -- -- 74
2021-02-01 16:00:00 17 14 Oeste 25 Oeste 0 -- -- 77
2021-02-01 15:00:00 15.9 14 Oeste 25 Sudoeste 0 -- -- 79
2021-02-01 14:00:00 16.5 14 Oeste 23 Oeste 0 -- -- 80
2021-02-01 13:00:00 15.3 8 Oeste 19 Sudoeste 0 -- -- 84
2021-02-01 12:00:00 14.7 10 Oeste 20 Sudoeste 0 -- -- 85
2021-02-01 11:00:00 14.6 14 Sudoeste 19 Sudoeste 0 -- -- 93
2021-02-01 10:00:00 13.4 10 Sudoeste 14 Sudoeste 0 -- -- 98
2021-02-01 09:00:00 12.8 6 Oeste 11 Oeste 0 -- -- 98
2021-02-01 08:00:00 13 0 Calma 21 Oeste 0 -- -- 99
2021-02-01 07:00:00 13 12 Sudoeste 22 Sudoeste 0 -- -- 99
2021-02-01 06:00:00 13.2 13 Sudoeste 27 Sudoeste 0 -- -- 100
2021-02-01 05:00:00 13.4 12 Sudoeste 25 Sudoeste 0 -- -- 100
2021-02-01 04:00:00 13.6 11 Oeste 26 Oeste 0 -- -- 100
2021-02-01 03:00:00 13.5 17 Sudoeste 26 Sudoeste 0.4 -- -- 99
2021-02-01 02:00:00 13.5 17 Sudoeste 31 Sudoeste 0 -- -- 98
2021-02-01 01:00:00 13.2 22 Sudoeste 32 Sudoeste 0 -- -- 98
2021-02-01 00:00:00 13.1 14 Sudoeste 26 Sudoeste 0 -- -- 98
2021-01-31 23:00:00 12.8 13 Sudoeste 22 Sudoeste 0.4 -- -- 98
2021-01-31 22:00:00 12.6 14 Sudoeste 26 Sudoeste 0 -- -- 95
2021-01-31 21:00:00 13 20 Sudoeste 32 Sudoeste 0 -- -- 93
2021-01-31 20:00:00 14.1 19 Sudoeste 31 Sudoeste 0 -- -- 90
2021-01-31 19:00:00 14.1 13 Sudoeste 21 Sudoeste 0 -- -- 87
2021-01-31 18:00:00 14.8 18 Sudoeste 29 Sudoeste 0 -- -- 83
2021-01-31 17:00:00 14.7 22 Sudoeste 32 Sudoeste 0 -- -- 82
2021-01-31 16:00:00 15.1 19 Sudoeste 34 Sudoeste 0 -- -- 83
2021-01-31 15:00:00 14.7 19 Sudoeste 33 Sudoeste 0 -- -- 87
2021-01-31 14:00:00 13.9 22 Sudoeste 36 Sudoeste 0 -- -- 89
2021-01-31 13:00:00 12.2 21 Sudoeste 30 Sudoeste 0 -- -- 96
2021-01-31 12:00:00 10.9 15 Sudoeste 25 Sudoeste 0 -- -- 98
2021-01-31 11:00:00 10.2 12 Sudoeste 24 Sudoeste 0 -- -- 99
2021-01-31 10:00:00 9.7 10 Sur 19 Sur 0 -- -- 98
2021-01-31 09:00:00 9.3 10 Sur 16 Sudoeste 0 -- -- 98
2021-01-31 08:00:00 8.9 8 Sur 14 Este 0 -- -- 98
2021-01-31 07:00:00 8.4 6 Sur 14 Sudoeste 0 -- -- 98
2021-01-31 06:00:00 8.3 8 Sudoeste 13 Sudoeste 0 -- -- 97
2021-01-31 05:00:00 8.4 2 Sudeste 8 Sudeste 0 -- -- 97
2021-01-31 04:00:00 8.2 3 Sudeste 13 Sudoeste 0 -- -- 97
2021-01-31 03:00:00 7.7 4 Sur 14 Sur 0 -- -- 94
2021-01-31 02:00:00 8.2 9 Sudoeste 18 Sudoeste 0 -- -- 92
2021-01-31 01:00:00 8.2 2 Sur 14 Sur 0 -- -- 91
2021-01-31 00:00:00 8.8 4 Sudoeste 19 Sudoeste 0 -- -- 87
2021-01-30 23:00:00 9.7 9 Oeste 16 Oeste 0 -- -- 85
2021-01-30 22:00:00 9.1 0 Calma 11 Sudoeste 0 -- -- 87
2021-01-30 21:00:00 10.6 7 Sudoeste 13 Sudoeste 0 -- -- 83
2021-01-30 20:00:00 11.2 0 Calma 7 Oeste 0 -- -- 81
2021-01-30 19:00:00 12.8 5 Oeste 24 Oeste 0 -- -- 73
2021-01-30 18:00:00 14.8 13 Oeste 37 Oeste 0 -- -- 67
2021-01-30 17:00:00 16.7 23 Oeste 39 Oeste 0 -- -- 61
2021-01-30 16:00:00 16.9 19 Oeste 36 Oeste 0 -- -- 66
2021-01-30 15:00:00 16.6 17 Oeste 31 Oeste 0 -- -- 75
2021-01-30 14:00:00 15.2 22 Oeste 36 Oeste 0 -- -- 86
2021-01-30 13:00:00 14.1 21 Oeste 35 Oeste 0 -- -- 99
2021-01-30 12:00:00 13.4 17 Sudoeste 33 Sudoeste 0.6 -- -- 100
2021-01-30 11:00:00 12.7 18 Sudoeste 28 Sudoeste 0.2 -- -- 100
2021-01-30 10:00:00 12 17 Sudoeste 26 Sudoeste 0.2 -- -- 100
2021-01-30 09:00:00 11.6 17 Sudoeste 27 Sudoeste 0 -- -- 100
2021-01-30 08:00:00 11.5 17 Sudoeste 27 Sudoeste 0 -- -- 99
2021-01-30 07:00:00 11.8 18 Sudoeste 30 Sudoeste 0.2 -- -- 99
2021-01-30 06:00:00 11.9 14 Sudoeste 21 Sudoeste 0 -- -- 100
2021-01-30 05:00:00 11.9 10 Sudoeste 16 Sudoeste 0 -- -- 100
2021-01-30 04:00:00 12 11 Sudoeste 19 Sur 0 -- -- 100
2021-01-30 03:00:00 12.1 10 Sur 14 Sur 0 -- -- 100
2021-01-30 02:00:00 12.2 9 Sur 19 Sudoeste 0 -- -- 100
2021-01-30 01:00:00 12.3 11 Sudoeste 15 Sudoeste 0.2 -- -- 100
2021-01-30 00:00:00 12.5 10 Sudoeste 17 Sudoeste 0 -- -- 100
2021-01-29 23:00:00 12.7 6 Sudoeste 11 Sudoeste 0.2 -- -- 100
2021-01-29 22:00:00 12.7 3 Oeste 9 Sur 0.2 -- -- 100
2021-01-29 21:00:00 12.6 5 Sur 9 Sudoeste 0 -- -- 100
2021-01-29 20:00:00 12.5 8 Sudoeste 17 Sudoeste 0 -- -- 100
2021-01-29 19:00:00 12.4 13 Sudoeste 17 Oeste 0 -- -- 100
2021-01-29 18:00:00 12.5 12 Sudoeste 18 Sudoeste 0 -- -- 100
2021-01-29 17:00:00 12.5 13 Sudoeste 19 Sudoeste 0 -- -- 100
2021-01-29 16:00:00 12.5 13 Sudoeste 19 Sudoeste 0 -- -- 100
2021-01-29 15:00:00 12.3 9 Sudoeste 16 Sudoeste 0 -- -- 100
2021-01-29 14:00:00 12.1 11 Sudoeste 15 Sudoeste 0 -- -- 100
2021-01-29 13:00:00 11.7 11 Sudoeste 15 Sudoeste 0 -- -- 100
2021-01-29 12:00:00 11 7 Sur 12 Sudoeste 0 -- -- 100
2021-01-29 11:00:00 9.8 7 Sur 12 Sur 0 -- -- 100
2021-01-29 10:00:00 9 6 Sur 9 Sur 0 -- -- 100
2021-01-29 09:00:00 8.8 0 Calma 11 Norte 0 -- -- 100
2021-01-29 08:00:00 9 6 Norte 14 Norte 0 -- -- 100
2021-01-29 07:00:00 8.9 7 Norte 15 Norte 0 -- -- 100
2021-01-29 06:00:00 9.5 7 Nordeste 16 Norte 0 -- -- 100
2021-01-29 05:00:00 8.1 4 Norte 10 Norte 0 -- -- 100
2021-01-29 04:00:00 8.3 5 Norte 7 Norte 0 -- -- 100
2021-01-29 03:00:00 9.1 3 Sudeste 8 Norte 0 -- -- 100
2021-01-29 02:00:00 9.2 3 Norte 10 Norte 0 -- -- 99
2021-01-29 01:00:00 9 0 Calma 5 Norte 0 -- -- 98
2021-01-29 00:00:00 9.7 0 Calma 6 Norte 0 -- -- 98
2021-01-28 23:00:00 10.7 0 Calma 6 Norte 0 -- -- 97
2021-01-28 22:00:00 11.5 3 Norte 5 Norte 0 -- -- 96
2021-01-28 21:00:00 12.6 0 Calma 3 Norte 0 -- -- 94
2021-01-28 20:00:00 14.3 4 Norte 6 Norte 0 -- -- 93
2021-01-28 19:00:00 17.1 0 Calma 9 Nordeste 0 -- -- 89
2021-01-28 18:00:00 20 5 Norte 12 Norte 0 -- -- 82
2021-01-28 17:00:00 21 5 Norte 12 Norte 0 -- -- 79
2021-01-28 16:00:00 21.1 5 Norte 13 Nordeste 0 -- -- 74
2021-01-28 15:00:00 20.1 7 Nordeste 14 Norte 0 -- -- 74
2021-01-28 14:00:00 18.7 6 Nordeste 17 Nordeste 0 -- -- 78
2021-01-28 13:00:00 16.6 12 Nordeste 21 Nordeste 0 -- -- 83
2021-01-28 12:00:00 14.5 13 Nordeste 18 Nordeste 0 -- -- 89
2021-01-28 11:00:00 11.9 11 Norte 17 Nordeste 0 -- -- 100
2021-01-28 10:00:00 10.5 6 Norte 19 Nordeste 0 -- -- 100
2021-01-28 09:00:00 9.7 11 Norte 18 Norte 0.2 -- -- 100
2021-01-28 08:00:00 9.6 8 Norte 15 Norte 0 -- -- 100
2021-01-28 07:00:00 9.7 6 Norte 15 Norte 0 -- -- 100
2021-01-28 06:00:00 9.5 8 Norte 15 Norte 0 -- -- 100
2021-01-28 05:00:00 9.6 9 Norte 14 Norte 0 -- -- 100
2021-01-28 04:00:00 10.4 8 Norte 14 Norte 0 -- -- 100
2021-01-28 03:00:00 10.4 8 Norte 13 Norte 0 -- -- 100
2021-01-28 02:00:00 10.9 6 Norte 16 Norte 0 -- -- 100
2021-01-28 01:00:00 11.1 8 Norte 11 Norte 0 -- -- 99
2021-01-28 00:00:00 11.5 6 Norte 11 Norte 0 -- -- 99
2021-01-27 23:00:00 10.3 3 Norte 6 Norte 0 -- -- 98
2021-01-27 22:00:00 10.4 0 Calma 2 Este 0 -- -- 96
2021-01-27 21:00:00 11.6 2 Este 5 Este 0 -- -- 96
2021-01-27 20:00:00 13.1 2 Este 5 Este 0 -- -- 94
2021-01-27 19:00:00 15.1 4 Norte 8 Nordeste 0 -- -- 90
2021-01-27 18:00:00 17.1 6 Nordeste 22 Nordeste 0 -- -- 82
2021-01-27 17:00:00 17.7 11 Nordeste 18 Nordeste 0 -- -- 82
2021-01-27 16:00:00 18 9 Norte 15 Nordeste 0 -- -- 80
2021-01-27 15:00:00 18 6 Norte 15 Norte 0 -- -- 82
2021-01-27 14:00:00 18.3 7 Nordeste 19 Norte 0 -- -- 79
2021-01-27 13:00:00 18.6 9 Norte 16 Nordeste 0 -- -- 86
2021-01-27 12:00:00 16.5 7 Norte 12 Norte 0 -- -- 100
2021-01-27 11:00:00 15 2 Nordeste 4 Nordeste 0 -- -- 100
2021-01-27 10:00:00 14.5 0 Calma 5 Sudoeste 0 -- -- 100
2021-01-27 09:00:00 14.4 0 Calma 5 Sudoeste 0 -- -- 100
2021-01-27 08:00:00 14.3 3 Sur 5 Sur 0 -- -- 100
2021-01-27 07:00:00 14.3 4 Sur 6 Sur 0 -- -- 100
2021-01-27 06:00:00 14.4 3 Oeste 9 Oeste 0 -- -- 100
2021-01-27 05:00:00 14.8 3 Sudoeste 6 Sudoeste 0 -- -- 100
2021-01-27 04:00:00 14.9 5 Sudoeste 8 Sudoeste 0.4 -- -- 100
2021-01-27 03:00:00 15 3 Oeste 7 Oeste 0.2 -- -- 100
2021-01-27 02:00:00 15 3 Sur 7 Sur 0 -- -- 99
2021-01-27 01:00:00 14.8 0 Calma 2 Sudoeste 0 -- -- 99
2021-01-27 00:00:00 14.8 0 Calma 3 Sudeste 0 -- -- 99
2021-01-26 23:00:00 14.9 0 Calma 5 Sudoeste 0 -- -- 98
2021-01-26 22:00:00 15 4 Sur 6 Sudoeste 0 -- -- 98
2021-01-26 21:00:00 15.1 4 Sur 9 Sudoeste 0 -- -- 97
2021-01-26 20:00:00 15.4 5 Sudoeste 10 Sudoeste 0 -- -- 96
2021-01-26 19:00:00 15.6 5 Oeste 12 Sudoeste 0 -- -- 96
2021-01-26 18:00:00 15.9 6 Sur 11 Sudoeste 0 -- -- 97
2021-01-26 17:00:00 16 8 Sudoeste 13 Sudoeste 0 -- -- 97
2021-01-26 16:00:00 15.8 9 Sudoeste 17 Sudoeste 0 -- -- 96
2021-01-26 15:00:00 15.7 10 Sudoeste 16 Sudoeste 0 -- -- 95
2021-01-26 14:00:00 15.6 10 Sudoeste 16 Sudoeste 0 -- -- 96
2021-01-26 13:00:00 15.1 9 Sudoeste 15 Sudoeste 0 -- -- 97
2021-01-26 12:00:00 14.6 10 Sudoeste 13 Sudoeste 0 -- -- 98
2021-01-26 11:00:00 13.9 8 Sur 10 Sur 0 -- -- 100
2021-01-26 10:00:00 13.2 4 Sur 7 Sudoeste 0 -- -- 100
2021-01-26 09:00:00 13 4 Sur 8 Sur 0 -- -- 99
2021-01-26 08:00:00 13 5 Sur 12 Sudoeste 0 -- -- 98
2021-01-26 07:00:00 13 8 Sudoeste 11 Sudoeste 0 -- -- 98
2021-01-26 06:00:00 13 4 Sudoeste 11 Sudoeste 0 -- -- 97
2021-01-26 05:00:00 13 5 Sur 17 Sudoeste 0 -- -- 97
2021-01-26 04:00:00 13.3 12 Sudoeste 20 Sudoeste 0 -- -- 96
2021-01-26 03:00:00 13.6 7 Sudoeste 24 Sudoeste 0 -- -- 95
2021-01-26 02:00:00 13.7 18 Sudoeste 27 Sudoeste 0 -- -- 95
2021-01-26 01:00:00 13.9 16 Sudoeste 24 Sudoeste 0 -- -- 95
2021-01-26 00:00:00 14 18 Sudoeste 27 Sudoeste 0 -- -- 94
2021-01-25 23:00:00 14.2 17 Sudoeste 23 Sudoeste 0 -- -- 94
2021-01-25 22:00:00 14.4 16 Sudoeste 23 Sudoeste 0 -- -- 92
2021-01-25 21:00:00 14.6 11 Sudoeste 20 Sudoeste 0 -- -- 89
2021-01-25 20:00:00 14.7 13 Sudoeste 19 Sudoeste 0 -- -- 90
2021-01-25 19:00:00 15.4 15 Sudoeste 28 Sudoeste 0 -- -- 87
2021-01-25 18:00:00 16.5 15 Oeste 42 Sudoeste 0 -- -- 83
2021-01-25 17:00:00 16.7 19 Sudoeste 35 Oeste 0 -- -- 90
2021-01-25 16:00:00 16.2 20 Sudoeste 38 Sudoeste 0.2 -- -- 95
2021-01-25 15:00:00 15.7 24 Sudoeste 37 Sudoeste 1 -- -- 98
2021-01-25 14:00:00 15.1 21 Sudoeste 37 Sudoeste 0.8 -- -- 99
2021-01-25 13:00:00 14.8 19 Sudoeste 31 Sudoeste 0 -- -- 99
2021-01-25 12:00:00 13.8 13 Sudoeste 21 Sudoeste 0 -- -- 99
2021-01-25 11:00:00 13.1 12 Sudoeste 18 Sudoeste 0 -- -- 100
2021-01-25 10:00:00 12.3 12 Sudoeste 17 Sudoeste 0 -- -- 100
2021-01-25 09:00:00 11.8 12 Sudoeste 22 Sudoeste 0 -- -- 100
2021-01-25 08:00:00 11.6 10 Sudoeste 15 Sudoeste 0 -- -- 100
2021-01-25 07:00:00 11.3 8 Sur 12 Sur 0 -- -- 99
2021-01-25 06:00:00 11.3 8 Sur 14 Sudoeste 0 -- -- 99
2021-01-25 05:00:00 11.2 8 Sur 12 Sudoeste 0 -- -- 99
2021-01-25 04:00:00 11 5 Sudeste 10 Sur 0 -- -- 99
2021-01-25 03:00:00 10.7 8 Sur 13 Sur 0 -- -- 99
2021-01-25 02:00:00 9.6 3 Sur 5 Sur 0 -- -- 98
2021-01-25 01:00:00 9.2 5 Sur 8 Sur 0 -- -- 96
2021-01-25 00:00:00 9.6 4 Sudeste 6 Este 0 -- -- 96